createdAt,value
2019-03-23T00:01:14.843Z,43.30
2019-03-23T00:03:46.568Z,44.30
2019-03-23T00:06:17.598Z,43.90
2019-03-23T00:08:49.120Z,43.90
2019-03-23T00:11:20.423Z,43.60
2019-03-23T00:13:51.733Z,43.30
2019-03-23T00:16:23.026Z,43.30
2019-03-23T00:18:54.081Z,43.50
2019-03-23T00:21:24.845Z,43.60
2019-03-23T00:23:56.061Z,43.20
2019-03-23T00:26:27.669Z,43.40
2019-03-23T00:28:58.401Z,43.60
2019-03-23T00:31:30.075Z,44.00
2019-03-23T00:34:00.718Z,43.60
2019-03-23T00:36:40.971Z,43.70
2019-03-23T00:39:05.237Z,44.30
2019-03-23T00:41:36.175Z,44.80
2019-03-23T00:44:07.563Z,44.80
2019-03-23T00:46:38.484Z,45.10
2019-03-23T00:49:10.494Z,44.60
2019-03-23T00:51:41.170Z,45.20
2019-03-23T00:54:11.841Z,45.40
2019-03-23T00:56:42.582Z,45.70
2019-03-23T00:59:14.789Z,45.90
2019-03-23T01:01:45.427Z,45.70
2019-03-23T01:04:54.160Z,45.80
2019-03-23T01:07:24.926Z,46.00
2019-03-23T01:09:56.374Z,44.40
2019-03-23T01:12:27.310Z,44.60
2019-03-23T01:14:58.327Z,45.00
2019-03-23T01:17:29.157Z,44.10
2019-03-23T01:19:59.890Z,44.10
2019-03-23T01:22:30.738Z,44.50
2019-03-23T01:25:01.426Z,44.70
2019-03-23T01:27:32.767Z,44.90
2019-03-23T01:30:03.550Z,44.70
2019-03-23T01:32:34.414Z,44.80
2019-03-23T01:35:05.531Z,44.90
2019-03-23T01:37:36.186Z,44.80
2019-03-23T01:40:07.334Z,45.10
2019-03-23T01:42:38.330Z,45.20
2019-03-23T01:45:09.712Z,45.30
2019-03-23T01:47:40.461Z,46.00
2019-03-23T01:50:11.403Z,45.70
2019-03-23T01:52:42.113Z,45.50
2019-03-23T01:55:12.904Z,45.40
2019-03-23T01:57:43.757Z,45.40
2019-03-23T02:00:15.477Z,45.40
2019-03-23T02:02:47.565Z,45.50
2019-03-23T02:05:18.445Z,45.50
2019-03-23T02:07:49.489Z,45.20
2019-03-23T02:10:20.296Z,45.00
2019-03-23T02:12:51.134Z,45.00
2019-03-23T02:15:22.181Z,45.10
2019-03-23T02:17:53.205Z,45.50
2019-03-23T02:20:23.974Z,45.70
2019-03-23T02:22:54.609Z,45.90
2019-03-23T02:25:26.015Z,46.00
2019-03-23T02:27:57.042Z,46.00
2019-03-23T02:30:27.829Z,45.80
2019-03-23T02:32:58.506Z,45.70
2019-03-23T02:35:30.740Z,45.80
2019-03-23T02:38:01.442Z,45.80
2019-03-23T02:40:32.145Z,46.00
2019-03-23T02:43:03.050Z,45.60
2019-03-23T02:45:33.873Z,45.30
2019-03-23T02:48:04.969Z,45.40
2019-03-23T02:50:36.068Z,45.80
2019-03-23T02:53:06.799Z,46.40
2019-03-23T02:55:37.529Z,47.10
2019-03-23T02:58:08.247Z,46.80
2019-03-23T03:00:38.884Z,46.50
2019-03-23T03:03:09.581Z,46.60
2019-03-23T03:05:41.281Z,46.50
2019-03-23T03:08:11.939Z,46.30
2019-03-23T03:10:43.207Z,46.00
2019-03-23T03:13:14.023Z,45.80
2019-03-23T03:15:44.830Z,45.70
2019-03-23T03:18:15.523Z,45.70
2019-03-23T03:20:46.239Z,45.70
2019-03-23T03:23:18.049Z,46.40
2019-03-23T03:25:49.343Z,46.60
2019-03-23T03:28:20.089Z,46.40
2019-03-23T03:30:50.763Z,46.50
2019-03-23T03:33:21.410Z,46.60
2019-03-23T03:35:52.571Z,46.70
2019-03-23T03:38:23.257Z,47.00
2019-03-23T03:40:54.064Z,47.20
2019-03-23T03:43:24.766Z,47.10
2019-03-23T03:45:55.558Z,47.10
2019-03-23T03:48:26.176Z,47.60
2019-03-23T03:50:56.862Z,47.60
2019-03-23T03:53:27.535Z,47.90
2019-03-23T03:55:58.171Z,48.10
2019-03-23T03:58:28.915Z,48.10
2019-03-23T04:00:59.590Z,47.90
2019-03-23T04:03:30.285Z,47.60
2019-03-23T04:06:00.951Z,47.50
2019-03-23T04:08:32.194Z,47.60
2019-03-23T04:11:02.972Z,48.90
2019-03-23T04:13:34.605Z,48.40
2019-03-23T04:16:05.564Z,48.40
2019-03-23T04:18:36.239Z,48.20
2019-03-23T04:21:06.933Z,48.10
2019-03-23T04:23:37.803Z,48.10
2019-03-23T04:26:09.168Z,48.30
2019-03-23T04:28:40.050Z,48.30
2019-03-23T04:31:11.102Z,48.30
2019-03-23T04:33:43.622Z,48.50
2019-03-23T04:36:14.203Z,48.50
2019-03-23T04:38:44.905Z,48.50
2019-03-23T04:41:15.585Z,48.60
2019-03-23T04:43:46.618Z,48.70
2019-03-23T04:46:17.336Z,48.90
2019-03-23T04:48:48.039Z,49.00
2019-03-23T04:51:18.856Z,48.80
2019-03-23T04:53:50.104Z,48.60
2019-03-23T04:56:20.715Z,48.50
2019-03-23T04:58:51.790Z,48.40
2019-03-23T05:01:22.508Z,47.90
2019-03-23T05:03:53.236Z,47.70
2019-03-23T05:06:23.909Z,47.50
2019-03-23T05:08:54.680Z,47.70
2019-03-23T05:11:25.467Z,46.20
2019-03-23T05:13:57.035Z,45.50
2019-03-23T05:16:27.731Z,45.30
2019-03-23T05:18:58.373Z,45.30
2019-03-23T05:21:29.008Z,45.40
2019-03-23T05:23:59.626Z,45.00
2019-03-23T05:26:30.336Z,44.60
2019-03-23T05:29:01.072Z,44.70
2019-03-23T05:31:31.700Z,45.00
2019-03-23T05:34:02.542Z,45.20
2019-03-23T05:36:33.206Z,45.10
2019-03-23T05:39:04.902Z,45.30
2019-03-23T05:41:35.817Z,45.40
2019-03-23T05:44:06.538Z,45.20
2019-03-23T05:46:37.182Z,44.90
2019-03-23T05:49:07.844Z,44.50
2019-03-23T05:51:38.491Z,45.10
2019-03-23T05:54:09.298Z,44.90
2019-03-23T05:56:40.070Z,44.90
2019-03-23T05:59:11.339Z,44.60
2019-03-23T06:01:42.006Z,44.30
2019-03-23T06:04:12.685Z,44.30
2019-03-23T06:06:43.640Z,44.00
2019-03-23T06:09:14.861Z,43.40
2019-03-23T06:11:45.598Z,44.30
2019-03-23T06:14:16.715Z,43.40
2019-03-23T06:16:47.390Z,43.50
2019-03-23T06:19:18.701Z,44.50
2019-03-23T06:21:49.350Z,44.70
2019-03-23T06:24:20.068Z,44.60
2019-03-23T06:26:50.728Z,45.00
2019-03-23T06:29:21.418Z,45.50
2019-03-23T06:31:52.064Z,46.10
2019-03-23T06:34:22.911Z,46.30
2019-03-23T06:36:53.826Z,46.80
2019-03-23T06:39:24.802Z,47.70
2019-03-23T06:41:55.501Z,48.50
2019-03-23T06:44:26.143Z,51.90
2019-03-23T06:46:57.822Z,52.80
2019-03-23T06:49:28.517Z,52.40
2019-03-23T06:51:59.138Z,52.20
2019-03-23T06:54:29.774Z,51.90
2019-03-23T06:57:00.657Z,51.60
2019-03-23T06:59:31.437Z,50.60
2019-03-23T07:02:02.062Z,56.00
2019-03-23T07:04:32.950Z,70.00
2019-03-23T07:07:04.613Z,74.10
2019-03-23T07:09:35.370Z,74.20
2019-03-23T07:12:06.446Z,74.80
2019-03-23T07:14:37.358Z,74.10
2019-03-23T07:17:08.547Z,73.00
2019-03-23T07:19:39.927Z,71.50
2019-03-23T07:22:10.616Z,69.20
2019-03-23T07:24:41.658Z,70.40
2019-03-23T07:27:12.796Z,70.90
2019-03-23T07:29:44.845Z,70.30
2019-03-23T07:32:15.676Z,70.50
2019-03-23T07:34:47.041Z,70.80
2019-03-23T07:37:17.749Z,71.30
2019-03-23T07:39:49.679Z,71.70
2019-03-23T07:42:21.976Z,76.20
2019-03-23T07:45:09.417Z,77.30
2019-03-23T07:47:41.223Z,76.80
2019-03-23T07:50:14.667Z,77.10
2019-03-23T07:52:46.467Z,78.10
2019-03-23T07:55:19.938Z,77.50
2019-03-23T07:57:50.901Z,77.90
2019-03-23T08:00:21.920Z,77.60
2019-03-23T08:02:52.673Z,76.20
2019-03-23T08:05:23.533Z,77.30
2019-03-23T08:07:55.205Z,78.10
2019-03-23T08:10:32.897Z,76.90
2019-03-23T08:13:04.847Z,76.90
2019-03-23T08:15:35.889Z,76.40
2019-03-23T08:18:07.095Z,75.50
2019-03-23T08:20:37.937Z,75.00
2019-03-23T08:23:08.908Z,74.10
2019-03-23T08:25:39.608Z,73.10
2019-03-23T08:28:10.225Z,71.90
2019-03-23T08:30:40.833Z,72.10
2019-03-23T08:33:26.946Z,71.00
2019-03-23T08:35:57.661Z,67.90
2019-03-23T08:38:28.295Z,64.20
2019-03-23T08:40:58.889Z,61.90
2019-03-23T08:43:29.629Z,59.10
2019-03-23T08:46:00.325Z,57.30
2019-03-23T08:48:31.049Z,57.00
2019-03-23T08:51:01.646Z,55.70
2019-03-23T08:53:32.455Z,54.80
2019-03-23T08:56:03.634Z,53.50
2019-03-23T08:58:31.758Z,53.10
2019-03-23T09:01:02.602Z,52.40
2019-03-23T09:03:33.297Z,51.50
2019-03-23T09:06:04.875Z,50.90
2019-03-23T09:08:36.184Z,49.50
2019-03-23T09:11:07.694Z,50.40
2019-03-23T09:13:40.754Z,50.20
2019-03-23T09:16:11.265Z,49.40
2019-03-23T09:18:42.056Z,49.50
2019-03-23T09:21:13.318Z,48.30
2019-03-23T09:23:44.055Z,47.70
2019-03-23T09:26:14.667Z,47.50
2019-03-23T09:28:45.270Z,46.80
2019-03-23T09:31:16.017Z,47.40
2019-03-23T09:33:46.750Z,47.10
2019-03-23T09:36:23.043Z,47.30
2019-03-23T09:38:52.590Z,47.50
2019-03-23T09:41:23.454Z,49.00
2019-03-23T09:43:54.234Z,50.60
2019-03-23T09:46:24.987Z,51.70
2019-03-23T09:48:55.716Z,52.00
2019-03-23T09:51:29.226Z,53.30
2019-03-23T09:53:59.488Z,54.20
2019-03-23T09:56:30.804Z,54.10
2019-03-23T09:59:01.438Z,54.70
2019-03-23T10:01:32.068Z,55.80
2019-03-23T10:04:02.762Z,55.60
2019-03-23T10:06:33.518Z,55.90
2019-03-23T10:09:05.110Z,56.60
2019-03-23T10:11:36.709Z,56.10
2019-03-23T10:14:07.444Z,56.70
2019-03-23T10:16:41.109Z,57.20
2019-03-23T10:19:12.014Z,57.30
2019-03-23T10:21:42.666Z,57.40
2019-03-23T10:24:13.827Z,57.00
2019-03-23T10:26:48.693Z,56.80
2019-03-23T10:29:20.650Z,56.80
2019-03-23T10:31:51.406Z,57.90
2019-03-23T10:34:57.708Z,58.20
2019-03-23T10:37:26.024Z,58.30
2019-03-23T10:39:56.592Z,59.70
2019-03-23T10:42:27.258Z,59.50
2019-03-23T10:44:57.865Z,61.60
2019-03-23T10:47:28.957Z,61.00
2019-03-23T10:49:59.614Z,62.00
2019-03-23T10:52:30.261Z,62.70
2019-03-23T10:55:01.351Z,63.10
2019-03-23T10:57:33.949Z,63.70
2019-03-23T11:00:04.762Z,64.70
2019-03-23T11:02:35.397Z,65.30
2019-03-23T11:05:06.574Z,66.10
2019-03-23T11:07:37.441Z,65.50
2019-03-23T11:10:08.762Z,64.60
2019-03-23T11:12:39.632Z,66.00
2019-03-23T11:15:10.674Z,67.60
2019-03-23T11:17:41.943Z,68.10
2019-03-23T11:20:13.267Z,68.50
2019-03-23T11:22:43.936Z,68.70
2019-03-23T11:25:15.157Z,70.90
2019-03-23T11:27:46.410Z,70.80
2019-03-23T11:30:17.144Z,70.10
2019-03-23T11:32:48.765Z,70.10
2019-03-23T11:35:19.584Z,71.90
2019-03-23T11:37:51.127Z,70.50
2019-03-23T11:40:21.983Z,70.60
2019-03-23T11:42:52.590Z,69.70
2019-03-23T11:45:23.258Z,70.70
2019-03-23T11:47:54.373Z,67.60
2019-03-23T11:50:25.035Z,65.50
2019-03-23T11:53:01.463Z,65.30
2019-03-23T11:55:32.336Z,61.90
2019-03-23T11:58:03.105Z,67.30
2019-03-23T12:00:34.274Z,62.90
2019-03-23T12:03:05.157Z,58.60
2019-03-23T12:05:35.760Z,64.00
2019-03-23T12:08:06.798Z,67.30
2019-03-23T12:10:37.425Z,59.50
2019-03-23T12:13:08.085Z,64.10
2019-03-23T12:15:38.676Z,66.80
2019-03-23T12:18:09.316Z,67.10
2019-03-23T12:20:40.316Z,68.50
2019-03-23T12:23:11.148Z,70.20
2019-03-23T12:25:41.775Z,71.50
2019-03-23T12:28:12.437Z,66.30
2019-03-23T12:30:43.386Z,66.10
2019-03-23T12:33:14.473Z,66.20
2019-03-23T12:35:45.241Z,56.70
2019-03-23T12:38:15.854Z,55.40
2019-03-23T12:40:46.859Z,56.20
2019-03-23T12:43:17.395Z,52.00
2019-03-23T12:45:48.013Z,50.10
2019-03-23T12:48:18.705Z,46.80
2019-03-23T12:50:49.668Z,46.00
2019-03-23T12:53:20.279Z,47.40
2019-03-23T12:55:50.882Z,46.00
2019-03-23T12:58:22.863Z,43.70
2019-03-23T13:00:53.660Z,39.20
2019-03-23T13:03:25.755Z,43.20
2019-03-23T13:05:57.217Z,40.70
2019-03-23T13:08:27.897Z,39.30
2019-03-23T13:10:58.787Z,42.10
2019-03-23T13:13:30.380Z,39.90
2019-03-23T13:16:01.500Z,40.80
2019-03-23T13:18:33.999Z,41.50
2019-03-23T13:21:05.553Z,41.90
2019-03-23T13:23:37.346Z,40.90
2019-03-23T13:26:08.322Z,41.20
2019-03-23T13:28:39.435Z,41.10
2019-03-23T13:31:11.038Z,41.90
2019-03-23T13:33:43.082Z,43.60
2019-03-23T13:36:16.253Z,40.90
2019-03-23T13:38:50.646Z,41.80
2019-03-23T13:41:24.377Z,43.20
2019-03-23T13:43:55.674Z,43.00
2019-03-23T13:46:26.615Z,43.40
2019-03-23T13:48:59.090Z,46.10
2019-03-23T13:51:30.505Z,46.90
2019-03-23T13:54:01.279Z,46.40
2019-03-23T13:56:32.401Z,46.20
2019-03-23T13:59:03.417Z,45.90
2019-03-23T14:01:34.576Z,44.70
2019-03-23T14:04:06.154Z,42.70
2019-03-23T14:06:37.022Z,41.10
2019-03-23T14:09:09.211Z,42.40
2019-03-23T14:11:40.022Z,40.80
2019-03-23T14:14:12.087Z,42.80
2019-03-23T14:16:43.529Z,43.50
2019-03-23T14:19:14.645Z,41.00
2019-03-23T14:21:49.965Z,40.80
2019-03-23T14:24:20.405Z,43.20
2019-03-23T14:26:51.752Z,43.50
2019-03-23T14:29:22.704Z,43.10
2019-03-23T14:31:53.656Z,42.50
2019-03-23T14:34:25.416Z,42.50
2019-03-23T14:37:20.779Z,40.30
2019-03-23T14:39:52.008Z,41.50
2019-03-23T14:42:23.349Z,40.60
2019-03-23T14:44:54.432Z,38.60
2019-03-23T14:47:25.241Z,39.40
2019-03-23T14:49:56.147Z,38.90
2019-03-23T14:52:26.795Z,41.10
2019-03-23T14:54:57.668Z,39.80
2019-03-23T14:57:28.713Z,40.00
2019-03-23T14:59:59.612Z,39.80
2019-03-23T15:02:30.960Z,40.50
2019-03-23T15:05:02.424Z,39.90
2019-03-23T15:07:32.977Z,40.40
2019-03-23T15:10:03.948Z,39.90
2019-03-23T15:12:34.895Z,40.00
2019-03-23T15:15:07.011Z,39.60
2019-03-23T15:17:48.037Z,40.00
2019-03-23T15:20:11.374Z,41.90
2019-03-23T15:22:42.713Z,43.90
2019-03-23T15:25:13.465Z,45.30
2019-03-23T15:27:44.754Z,44.50
2019-03-23T15:30:15.560Z,43.60
2019-03-23T15:32:46.660Z,42.60
2019-03-23T15:35:17.778Z,42.40
2019-03-23T15:37:49.966Z,41.90
2019-03-23T15:40:20.581Z,40.50
2019-03-23T15:42:51.412Z,40.80
2019-03-23T15:45:23.020Z,39.40
2019-03-23T15:47:53.866Z,39.70
2019-03-23T15:50:24.646Z,37.80
2019-03-23T15:52:55.479Z,37.90
2019-03-23T15:55:26.092Z,39.20
2019-03-23T15:57:56.994Z,40.10
2019-03-23T16:00:28.612Z,39.60
2019-03-23T16:02:59.405Z,41.00
2019-03-23T16:05:30.236Z,39.60
2019-03-23T16:08:00.929Z,36.60
2019-03-23T16:10:31.537Z,35.30
2019-03-23T16:13:03.559Z,38.00
2019-03-23T16:15:35.362Z,40.10
2019-03-23T16:18:06.366Z,37.20
2019-03-23T16:20:37.591Z,37.20
2019-03-23T16:23:08.569Z,38.80
2019-03-23T16:25:39.630Z,39.70
2019-03-23T16:28:10.457Z,39.60
2019-03-23T16:30:41.323Z,37.90
2019-03-23T16:33:13.049Z,40.00
2019-03-23T16:35:43.919Z,41.30
2019-03-23T16:38:15.053Z,41.50
2019-03-23T16:40:45.936Z,42.10
2019-03-23T16:43:16.864Z,41.80
2019-03-23T16:45:47.651Z,41.80
2019-03-23T16:48:18.950Z,42.60
2019-03-23T16:50:49.796Z,43.00
2019-03-23T16:53:20.774Z,43.90
2019-03-23T16:55:52.285Z,43.40
2019-03-23T16:58:22.933Z,42.10
2019-03-23T17:00:53.983Z,41.00
2019-03-23T17:03:25.209Z,40.40
2019-03-23T17:05:55.903Z,39.80
2019-03-23T17:08:26.574Z,39.60
2019-03-23T17:10:57.360Z,38.90
2019-03-23T17:13:28.146Z,37.70
2019-03-23T17:15:58.848Z,36.10
2019-03-23T17:18:29.975Z,37.00
2019-03-23T17:21:00.925Z,37.60
2019-03-23T17:23:36.683Z,37.00
2019-03-23T17:26:08.175Z,36.60
2019-03-23T17:28:39.576Z,35.90
2019-03-23T17:31:11.470Z,35.30
2019-03-23T17:33:42.696Z,35.30
2019-03-23T17:36:13.633Z,35.50
2019-03-23T17:38:44.348Z,36.10
2019-03-23T17:41:15.455Z,36.70
2019-03-23T17:43:46.420Z,36.50
2019-03-23T17:46:18.257Z,36.60
2019-03-23T17:48:49.631Z,37.00
2019-03-23T17:51:20.815Z,37.20
2019-03-23T17:54:00.252Z,37.50
2019-03-23T17:56:31.093Z,37.00
2019-03-23T17:59:02.526Z,37.10
2019-03-23T18:01:33.301Z,37.60
2019-03-23T18:04:04.253Z,37.60
2019-03-23T18:06:35.224Z,37.20
2019-03-23T18:09:07.613Z,37.50
2019-03-23T18:11:38.956Z,37.60
2019-03-23T18:14:10.248Z,37.90
2019-03-23T18:16:41.335Z,38.50
2019-03-23T18:19:12.299Z,38.70
2019-03-23T18:21:43.092Z,38.60
2019-03-23T18:24:13.875Z,38.60
2019-03-23T18:26:44.614Z,38.40
2019-03-23T18:29:15.522Z,39.10
2019-03-23T18:31:46.485Z,39.30
2019-03-23T18:34:17.232Z,39.50
2019-03-23T18:36:48.976Z,39.50
2019-03-23T18:39:19.628Z,39.60
2019-03-23T18:41:51.504Z,39.70
2019-03-23T18:44:22.281Z,39.90
2019-03-23T18:46:53.115Z,39.90
2019-03-23T18:49:23.814Z,40.20
2019-03-23T18:51:55.101Z,39.80
2019-03-23T18:54:28.858Z,40.10
2019-03-23T18:57:00.321Z,40.40
2019-03-23T18:59:31.092Z,39.90
2019-03-23T19:02:01.892Z,39.90
2019-03-23T19:04:32.782Z,40.10
2019-03-23T19:07:03.606Z,39.60
2019-03-23T19:09:34.938Z,40.10
2019-03-23T19:12:05.802Z,40.20
2019-03-23T19:14:36.639Z,40.40
2019-03-23T19:17:08.005Z,40.30
2019-03-23T19:19:40.823Z,40.60
2019-03-23T19:22:12.290Z,40.30
2019-03-23T19:24:43.001Z,40.10
2019-03-23T19:27:14.205Z,40.40
2019-03-23T19:29:45.644Z,40.70
2019-03-23T19:32:16.361Z,40.80
2019-03-23T19:34:47.098Z,40.40
2019-03-23T19:37:18.284Z,40.60
2019-03-23T19:39:49.876Z,40.50
2019-03-23T19:42:21.373Z,40.90
2019-03-23T19:44:53.690Z,40.90
2019-03-23T19:47:24.732Z,41.00
2019-03-23T19:49:55.784Z,40.90
2019-03-23T19:52:26.941Z,41.30
2019-03-23T19:54:58.374Z,41.00
2019-03-23T19:57:33.370Z,41.10
2019-03-23T20:00:04.938Z,40.90
2019-03-23T20:02:36.017Z,41.00
2019-03-23T20:05:07.901Z,40.30
2019-03-23T20:07:39.558Z,40.40
2019-03-23T20:10:11.196Z,40.50
2019-03-23T20:12:42.193Z,40.30
2019-03-23T20:15:15.702Z,40.50
2019-03-23T20:17:47.443Z,39.70
2019-03-23T20:20:21.642Z,39.40
2019-03-23T20:22:53.793Z,39.30
2019-03-23T20:25:24.630Z,39.60
2019-03-23T20:27:55.703Z,39.80
2019-03-23T20:30:26.615Z,39.60
2019-03-23T20:32:58.538Z,40.20
2019-03-23T20:35:29.434Z,39.30
2019-03-23T20:38:00.478Z,39.50
2019-03-23T20:40:32.233Z,39.50
2019-03-23T20:43:03.353Z,39.40
2019-03-23T20:45:34.900Z,39.50
2019-03-23T20:48:06.404Z,39.40
2019-03-23T20:50:38.922Z,39.10
2019-03-23T20:53:10.570Z,39.10
2019-03-23T20:55:41.625Z,39.40
2019-03-23T20:58:13.672Z,39.20
2019-03-23T21:00:44.939Z,39.10
2019-03-23T21:03:16.214Z,39.20
2019-03-23T21:05:47.162Z,39.10
2019-03-23T21:08:18.271Z,39.00
2019-03-23T21:10:49.176Z,38.90
2019-03-23T21:13:20.338Z,39.30
2019-03-23T21:15:51.674Z,39.50
2019-03-23T21:18:25.524Z,38.60
2019-03-23T21:20:56.608Z,38.30
2019-03-23T21:23:27.951Z,38.30
2019-03-23T21:25:58.978Z,38.30
2019-03-23T21:28:30.320Z,38.50
2019-03-23T21:31:04.482Z,38.70
2019-03-23T21:33:39.029Z,38.50
2019-03-23T21:36:08.973Z,38.50
2019-03-23T21:38:39.988Z,39.10
2019-03-23T21:41:10.762Z,38.90
2019-03-23T21:43:41.468Z,39.00
2019-03-23T21:46:12.166Z,38.80
2019-03-23T21:48:43.109Z,38.40
2019-03-23T21:51:14.093Z,38.40
2019-03-23T21:53:52.550Z,38.40
2019-03-23T21:56:23.317Z,37.80
2019-03-23T21:58:54.279Z,37.20
2019-03-23T22:01:24.961Z,37.20
2019-03-23T22:03:55.694Z,36.70
2019-03-23T22:06:26.618Z,36.50
2019-03-23T22:08:58.468Z,36.10
2019-03-23T22:11:29.301Z,36.60
2019-03-23T22:14:00.132Z,36.30
2019-03-23T22:16:30.951Z,35.60
2019-03-23T22:19:02.632Z,35.60
2019-03-23T22:21:33.503Z,35.30
2019-03-23T22:24:04.468Z,35.20
2019-03-23T22:26:35.437Z,35.30
2019-03-23T22:29:06.411Z,34.90
2019-03-23T22:31:37.206Z,34.70
2019-03-23T22:34:08.036Z,34.40
2019-03-23T22:36:38.877Z,33.60
2019-03-23T22:39:09.923Z,33.40
2019-03-23T22:41:41.409Z,32.80
2019-03-23T22:44:12.439Z,32.50
2019-03-23T22:46:43.372Z,31.60
2019-03-23T22:49:14.223Z,31.20
2019-03-23T22:51:45.689Z,30.70
2019-03-23T22:54:16.852Z,30.00
2019-03-23T22:56:47.756Z,29.30
2019-03-23T22:59:18.513Z,28.60
2019-03-23T23:01:49.304Z,28.30
2019-03-23T23:04:20.019Z,28.00
2019-03-23T23:06:50.859Z,27.10
2019-03-23T23:09:22.003Z,27.30
2019-03-23T23:11:52.989Z,27.10
2019-03-23T23:14:24.939Z,26.20
2019-03-23T23:16:55.896Z,26.00
2019-03-23T23:19:26.621Z,26.20
2019-03-23T23:21:57.445Z,26.10
2019-03-23T23:24:28.776Z,25.30
2019-03-23T23:26:59.676Z,25.30
2019-03-23T23:29:30.416Z,25.40
2019-03-23T23:32:01.402Z,24.60
2019-03-23T23:34:32.089Z,24.80
2019-03-23T23:37:03.086Z,24.40
2019-03-23T23:39:34.032Z,24.40
2019-03-23T23:42:06.784Z,24.10
2019-03-23T23:44:37.908Z,24.60
2019-03-23T23:47:08.683Z,24.50
2019-03-23T23:49:39.755Z,23.60
2019-03-23T23:52:10.628Z,24.20
2019-03-23T23:54:41.458Z,23.60
2019-03-23T23:57:12.375Z,25.40
2019-03-23T23:59:43.067Z,27.50
